sensor_id;sensor_type;location;lat;lon;timestamp;pressure;altitude;pressure_sealevel;temperature;humidity
40864;BME280;26582;47.524;19.012;2023-10-31T00:01:28;98023.72;;;16.73;67.11
40864;BME280;26582;47.524;19.012;2023-10-31T00:03:56;98019.16;;;16.87;66.15
40864;BME280;26582;47.524;19.012;2023-10-31T00:06:23;98015.41;;;16.94;66.29
40864;BME280;26582;47.524;19.012;2023-10-31T00:08:50;98016.88;;;16.97;65.86
40864;BME280;26582;47.524;19.012;2023-10-31T00:11:16;98013.16;;;16.91;66.56
40864;BME280;26582;47.524;19.012;2023-10-31T00:13:43;98019.75;;;16.95;66.39
40864;BME280;26582;47.524;19.012;2023-10-31T00:16:10;98015.84;;;16.98;66.32
40864;BME280;26582;47.524;19.012;2023-10-31T00:18:36;98012.31;;;16.91;67.04
40864;BME280;26582;47.524;19.012;2023-10-31T00:21:05;98016.88;;;16.84;67.26
40864;BME280;26582;47.524;19.012;2023-10-31T00:23:32;98007.97;;;16.90;67.39
40864;BME280;26582;47.524;19.012;2023-10-31T00:25:58;98000.34;;;16.87;67.95
40864;BME280;26582;47.524;19.012;2023-10-31T00:28:25;97999.72;;;16.91;68.03
40864;BME280;26582;47.524;19.012;2023-10-31T00:30:52;97996.84;;;16.86;68.13
40864;BME280;26582;47.524;19.012;2023-10-31T00:33:19;97996.84;;;16.73;68.77
40864;BME280;26582;47.524;19.012;2023-10-31T00:35:46;97988.97;;;16.78;68.16
40864;BME280;26582;47.524;19.012;2023-10-31T00:38:14;97971.59;;;16.61;69.36
40864;BME280;26582;47.524;19.012;2023-10-31T00:40:41;97981.94;;;16.51;69.51
40864;BME280;26582;47.524;19.012;2023-10-31T00:43:07;97973.44;;;16.54;68.10
40864;BME280;26582;47.524;19.012;2023-10-31T00:45:34;97977.19;;;16.39;69.06
40864;BME280;26582;47.524;19.012;2023-10-31T00:48:02;97971.19;;;16.37;68.68
40864;BME280;26582;47.524;19.012;2023-10-31T00:50:29;97968.69;;;16.23;67.84
40864;BME280;26582;47.524;19.012;2023-10-31T00:52:56;97959.00;;;16.41;65.73
40864;BME280;26582;47.524;19.012;2023-10-31T00:55:24;97962.06;;;16.05;68.10
40864;BME280;26582;47.524;19.012;2023-10-31T00:57:50;97953.19;;;16.18;67.30
40864;BME280;26582;47.524;19.012;2023-10-31T01:00:18;97940.59;;;16.18;66.36
40864;BME280;26582;47.524;19.012;2023-10-31T01:02:46;97939.97;;;16.10;67.12
40864;BME280;26582;47.524;19.012;2023-10-31T01:05:12;97938.94;;;15.98;66.76
40864;BME280;26582;47.524;19.012;2023-10-31T01:07:39;97938.31;;;16.09;65.00
40864;BME280;26582;47.524;19.012;2023-10-31T01:10:09;97932.34;;;16.20;64.38
40864;BME280;26582;47.524;19.012;2023-10-31T01:12:38;97931.09;;;16.16;65.60
40864;BME280;26582;47.524;19.012;2023-10-31T01:15:05;97926.56;;;16.30;65.08
40864;BME280;26582;47.524;19.012;2023-10-31T01:17:32;97927.78;;;16.40;64.89
40864;BME280;26582;47.524;19.012;2023-10-31T01:19:59;97927.34;;;16.43;64.50
40864;BME280;26582;47.524;19.012;2023-10-31T01:22:26;97919.09;;;16.38;63.70
40864;BME280;26582;47.524;19.012;2023-10-31T01:24:53;97911.66;;;16.40;64.23
40864;BME280;26582;47.524;19.012;2023-10-31T01:27:19;97911.84;;;16.39;64.82
40864;BME280;26582;47.524;19.012;2023-10-31T01:29:47;97914.34;;;16.47;64.67
40864;BME280;26582;47.524;19.012;2023-10-31T01:32:14;97906.06;;;16.55;63.55
40864;BME280;26582;47.524;19.012;2023-10-31T01:34:41;97914.09;;;16.62;64.35
40864;BME280;26582;47.524;19.012;2023-10-31T01:37:08;97902.31;;;16.63;64.31
40864;BME280;26582;47.524;19.012;2023-10-31T01:39:35;97906.25;;;16.67;63.95
40864;BME280;26582;47.524;19.012;2023-10-31T01:42:03;97902.72;;;16.66;64.82
40864;BME280;26582;47.524;19.012;2023-10-31T01:44:29;97900.88;;;16.54;65.34
40864;BME280;26582;47.524;19.012;2023-10-31T01:46:58;97896.97;;;16.50;64.17
40864;BME280;26582;47.524;19.012;2023-10-31T01:49:25;97895.31;;;16.55;65.00
40864;BME280;26582;47.524;19.012;2023-10-31T01:51:52;97883.97;;;16.27;66.65
40864;BME280;26582;47.524;19.012;2023-10-31T01:54:18;97889.34;;;16.27;65.15
40864;BME280;26582;47.524;19.012;2023-10-31T01:56:45;97886.44;;;16.41;64.81
40864;BME280;26582;47.524;19.012;2023-10-31T01:59:14;97876.47;;;16.49;64.21
40864;BME280;26582;47.524;19.012;2023-10-31T02:01:41;97888.50;;;16.26;64.85
40864;BME280;26582;47.524;19.012;2023-10-31T02:04:09;97876.13;;;16.18;64.75
40864;BME280;26582;47.524;19.012;2023-10-31T02:06:36;97878.19;;;16.30;63.68
40864;BME280;26582;47.524;19.012;2023-10-31T02:09:03;97885.19;;;16.37;62.33
40864;BME280;26582;47.524;19.012;2023-10-31T02:11:30;97879.81;;;16.37;62.61
40864;BME280;26582;47.524;19.012;2023-10-31T02:13:57;97873.41;;;16.45;62.16
40864;BME280;26582;47.524;19.012;2023-10-31T02:16:23;97883.16;;;16.00;64.07
40864;BME280;26582;47.524;19.012;2023-10-31T02:18:51;97857.13;;;16.20;64.07
40864;BME280;26582;47.524;19.012;2023-10-31T02:21:19;97860.63;;;16.14;64.60
40864;BME280;26582;47.524;19.012;2023-10-31T02:23:57;97836.88;;;16.04;64.59
40864;BME280;26582;47.524;19.012;2023-10-31T02:26:25;97853.63;;;16.00;65.65
40864;BME280;26582;47.524;19.012;2023-10-31T02:28:54;97855.03;;;16.22;64.61
40864;BME280;26582;47.524;19.012;2023-10-31T02:31:21;97852.34;;;16.35;63.48
40864;BME280;26582;47.524;19.012;2023-10-31T02:33:47;97866.19;;;16.46;63.45
40864;BME280;26582;47.524;19.012;2023-10-31T02:36:14;97866.16;;;16.39;63.58
40864;BME280;26582;47.524;19.012;2023-10-31T02:38:41;97849.59;;;16.49;63.00
40864;BME280;26582;47.524;19.012;2023-10-31T02:41:09;97851.91;;;16.52;62.69
40864;BME280;26582;47.524;19.012;2023-10-31T02:43:37;97858.72;;;16.48;62.94
40864;BME280;26582;47.524;19.012;2023-10-31T02:46:03;97852.09;;;16.50;62.77
40864;BME280;26582;47.524;19.012;2023-10-31T02:48:30;97831.44;;;16.44;63.64
40864;BME280;26582;47.524;19.012;2023-10-31T02:51:03;97840.53;;;16.43;61.90
40864;BME280;26582;47.524;19.012;2023-10-31T02:53:30;97845.91;;;16.50;61.57
40864;BME280;26582;47.524;19.012;2023-10-31T02:55:57;97831.84;;;16.48;61.39
40864;BME280;26582;47.524;19.012;2023-10-31T02:58:25;97845.91;;;16.50;61.98
40864;BME280;26582;47.524;19.012;2023-10-31T03:00:53;97836.19;;;16.49;61.57
40864;BME280;26582;47.524;19.012;2023-10-31T03:03:20;97840.28;;;16.58;61.46
40864;BME280;26582;47.524;19.012;2023-10-31T03:05:48;97849.16;;;16.65;60.87
40864;BME280;26582;47.524;19.012;2023-10-31T03:08:15;97842.13;;;16.64;60.86
40864;BME280;26582;47.524;19.012;2023-10-31T03:10:47;97841.75;;;16.60;61.45
40864;BME280;26582;47.524;19.012;2023-10-31T03:13:16;97844.63;;;16.65;61.63
40864;BME280;26582;47.524;19.012;2023-10-31T03:15:45;97849.81;;;16.60;61.67
40864;BME280;26582;47.524;19.012;2023-10-31T03:18:12;97853.13;;;16.56;61.30
40864;BME280;26582;47.524;19.012;2023-10-31T03:20:40;97843.41;;;16.48;61.44
40864;BME280;26582;47.524;19.012;2023-10-31T03:23:06;97850.84;;;16.53;61.23
40864;BME280;26582;47.524;19.012;2023-10-31T03:25:33;97843.38;;;16.55;61.84
40864;BME280;26582;47.524;19.012;2023-10-31T03:28:00;97852.50;;;16.54;61.93
40864;BME280;26582;47.524;19.012;2023-10-31T03:30:26;97866.78;;;16.48;63.54
40864;BME280;26582;47.524;19.012;2023-10-31T03:32:54;97866.38;;;16.44;62.74
40864;BME280;26582;47.524;19.012;2023-10-31T03:35:21;97887.28;;;16.35;62.40
40864;BME280;26582;47.524;19.012;2023-10-31T03:37:47;97875.50;;;16.10;63.56
40864;BME280;26582;47.524;19.012;2023-10-31T03:40:14;97892.22;;;15.85;66.24
40864;BME280;26582;47.524;19.012;2023-10-31T03:42:41;97878.81;;;15.92;67.48
40864;BME280;26582;47.524;19.012;2023-10-31T03:45:08;97894.28;;;15.70;68.95
40864;BME280;26582;47.524;19.012;2023-10-31T03:47:35;97897.13;;;15.62;69.51
40864;BME280;26582;47.524;19.012;2023-10-31T03:50:04;97889.69;;;15.57;72.65
40864;BME280;26582;47.524;19.012;2023-10-31T03:52:31;97890.00;;;15.21;77.02
40864;BME280;26582;47.524;19.012;2023-10-31T03:54:57;97887.78;;;15.38;74.07
40864;BME280;26582;47.524;19.012;2023-10-31T03:57:24;97885.75;;;15.47;73.97
40864;BME280;26582;47.524;19.012;2023-10-31T03:59:52;97888.22;;;15.35;75.44
40864;BME280;26582;47.524;19.012;2023-10-31T04:02:18;97881.38;;;15.26;73.88
40864;BME280;26582;47.524;19.012;2023-10-31T04:04:45;97891.66;;;15.22;72.01
40864;BME280;26582;47.524;19.012;2023-10-31T04:07:13;97881.91;;;15.08;74.35
40864;BME280;26582;47.524;19.012;2023-10-31T04:09:40;97880.47;;;15.12;74.67
40864;BME280;26582;47.524;19.012;2023-10-31T04:12:07;97874.28;;;15.05;74.82
40864;BME280;26582;47.524;19.012;2023-10-31T04:14:34;97886.19;;;14.89;77.86
40864;BME280;26582;47.524;19.012;2023-10-31T04:17:01;97868.56;;;15.21;74.02
40864;BME280;26582;47.524;19.012;2023-10-31T04:19:27;97856.13;;;15.13;75.05
40864;BME280;26582;47.524;19.012;2023-10-31T04:21:54;97863.59;;;15.18;75.14
40864;BME280;26582;47.524;19.012;2023-10-31T04:24:22;97853.28;;;15.15;74.51
40864;BME280;26582;47.524;19.012;2023-10-31T04:26:49;97863.97;;;15.08;75.12
40864;BME280;26582;47.524;19.012;2023-10-31T04:29:16;97847.97;;;15.35;71.74
40864;BME280;26582;47.524;19.012;2023-10-31T04:31:42;97833.91;;;15.26;74.97
40864;BME280;26582;47.524;19.012;2023-10-31T04:34:09;97831.63;;;15.23;73.99
40864;BME280;26582;47.524;19.012;2023-10-31T04:36:36;97831.41;;;15.18;72.59
40864;BME280;26582;47.524;19.012;2023-10-31T04:39:03;97826.91;;;15.25;72.18
40864;BME280;26582;47.524;19.012;2023-10-31T04:41:31;97824.81;;;15.21;74.47
40864;BME280;26582;47.524;19.012;2023-10-31T04:43:58;97831.22;;;15.20;69.71
40864;BME280;26582;47.524;19.012;2023-10-31T04:46:24;97831.22;;;15.26;68.53
40864;BME280;26582;47.524;19.012;2023-10-31T04:48:52;97808.34;;;15.30;68.06
40864;BME280;26582;47.524;19.012;2023-10-31T04:51:19;97813.00;;;15.08;69.96
40864;BME280;26582;47.524;19.012;2023-10-31T04:53:45;97814.84;;;14.88;72.05
40864;BME280;26582;47.524;19.012;2023-10-31T04:56:13;97822.44;;;14.78;71.47
40864;BME280;26582;47.524;19.012;2023-10-31T04:58:41;97804.84;;;14.69;73.49
40864;BME280;26582;47.524;19.012;2023-10-31T05:01:08;97800.41;;;14.96;72.58
40864;BME280;26582;47.524;19.012;2023-10-31T05:03:36;97788.44;;;14.92;71.92
40864;BME280;26582;47.524;19.012;2023-10-31T05:06:03;97784.34;;;15.02;70.02
40864;BME280;26582;47.524;19.012;2023-10-31T05:08:30;97789.28;;;14.99;69.73
40864;BME280;26582;47.524;19.012;2023-10-31T05:10:57;97777.72;;;14.92;69.58
40864;BME280;26582;47.524;19.012;2023-10-31T05:13:24;97776.09;;;15.04;63.66
40864;BME280;26582;47.524;19.012;2023-10-31T05:15:52;97773.44;;;15.17;65.00
40864;BME280;26582;47.524;19.012;2023-10-31T05:18:19;97760.84;;;15.18;64.68
40864;BME280;26582;47.524;19.012;2023-10-31T05:20:46;97759.03;;;15.25;65.32
40864;BME280;26582;47.524;19.012;2023-10-31T05:23:13;97770.53;;;15.12;65.59
40864;BME280;26582;47.524;19.012;2023-10-31T05:25:40;97793.41;;;15.01;65.87
40864;BME280;26582;47.524;19.012;2023-10-31T05:28:06;97807.84;;;14.94;65.63
40864;BME280;26582;47.524;19.012;2023-10-31T05:30:33;97816.88;;;14.93;65.63
40864;BME280;26582;47.524;19.012;2023-10-31T05:33:01;97838.72;;;14.83;65.32
40864;BME280;26582;47.524;19.012;2023-10-31T05:35:28;97837.69;;;14.84;66.28
40864;BME280;26582;47.524;19.012;2023-10-31T05:37:55;97839.81;;;14.95;67.43
40864;BME280;26582;47.524;19.012;2023-10-31T05:40:22;97825.78;;;14.93;67.86
40864;BME280;26582;47.524;19.012;2023-10-31T05:42:50;97814.91;;;15.34;68.11
40864;BME280;26582;47.524;19.012;2023-10-31T05:45:18;97822.06;;;14.94;70.45
40864;BME280;26582;47.524;19.012;2023-10-31T05:47:45;97803.69;;;14.98;70.51
40864;BME280;26582;47.524;19.012;2023-10-31T05:50:13;97800.34;;;14.82;69.96
40864;BME280;26582;47.524;19.012;2023-10-31T05:52:40;97793.78;;;14.92;68.50
40864;BME280;26582;47.524;19.012;2023-10-31T05:55:07;97783.44;;;14.75;69.48
40864;BME280;26582;47.524;19.012;2023-10-31T05:57:34;97798.72;;;14.81;67.61
40864;BME280;26582;47.524;19.012;2023-10-31T06:00:01;97807.41;;;14.90;69.05
40864;BME280;26582;47.524;19.012;2023-10-31T06:02:37;97800.19;;;14.91;67.42
40864;BME280;26582;47.524;19.012;2023-10-31T06:05:05;97789.47;;;14.91;68.56
40864;BME280;26582;47.524;19.012;2023-10-31T06:07:33;97788.41;;;14.85;69.95
40864;BME280;26582;47.524;19.012;2023-10-31T06:10:00;97775.06;;;14.98;69.21
40864;BME280;26582;47.524;19.012;2023-10-31T06:12:28;97799.38;;;15.03;68.25
40864;BME280;26582;47.524;19.012;2023-10-31T06:14:55;97803.75;;;15.04;71.01
40864;BME280;26582;47.524;19.012;2023-10-31T06:17:22;97798.56;;;15.03;68.96
40864;BME280;26582;47.524;19.012;2023-10-31T06:19:50;97803.09;;;15.02;68.47
40864;BME280;26582;47.524;19.012;2023-10-31T06:22:16;97790.94;;;15.06;69.07
40864;BME280;26582;47.524;19.012;2023-10-31T06:24:45;97795.66;;;14.98;67.63
40864;BME280;26582;47.524;19.012;2023-10-31T06:27:11;97792.13;;;14.77;68.57
40864;BME280;26582;47.524;19.012;2023-10-31T06:29:38;97802.38;;;14.67;69.13
40864;BME280;26582;47.524;19.012;2023-10-31T06:32:06;97797.03;;;14.67;68.65
40864;BME280;26582;47.524;19.012;2023-10-31T06:34:33;97793.56;;;14.86;68.91
40864;BME280;26582;47.524;19.012;2023-10-31T06:37:02;97804.72;;;14.90;67.78
40864;BME280;26582;47.524;19.012;2023-10-31T06:39:28;97799.59;;;14.95;68.28
40864;BME280;26582;47.524;19.012;2023-10-31T06:41:56;97799.59;;;15.08;66.74
40864;BME280;26582;47.524;19.012;2023-10-31T06:44:23;97796.75;;;15.10;67.46
40864;BME280;26582;47.524;19.012;2023-10-31T06:46:50;97796.25;;;14.86;68.05
40864;BME280;26582;47.524;19.012;2023-10-31T06:49:17;97806.75;;;14.81;69.80
40864;BME280;26582;47.524;19.012;2023-10-31T06:51:47;97801.59;;;14.80;66.86
40864;BME280;26582;47.524;19.012;2023-10-31T06:54:16;97809.44;;;14.81;63.77
40864;BME280;26582;47.524;19.012;2023-10-31T06:56:43;97794.81;;;14.84;66.38
40864;BME280;26582;47.524;19.012;2023-10-31T06:59:18;97813.97;;;14.87;65.81
40864;BME280;26582;47.524;19.012;2023-10-31T07:01:45;97814.56;;;14.76;66.00
40864;BME280;26582;47.524;19.012;2023-10-31T07:04:12;97812.72;;;14.77;66.98
40864;BME280;26582;47.524;19.012;2023-10-31T07:06:39;97808.59;;;14.74;66.51
40864;BME280;26582;47.524;19.012;2023-10-31T07:09:08;97798.16;;;14.99;66.14
40864;BME280;26582;47.524;19.012;2023-10-31T07:11:35;97792.59;;;15.01;65.48
40864;BME280;26582;47.524;19.012;2023-10-31T07:14:02;97778.16;;;14.95;64.49
40864;BME280;26582;47.524;19.012;2023-10-31T07:16:31;97783.50;;;14.88;64.25
40864;BME280;26582;47.524;19.012;2023-10-31T07:18:58;97786.56;;;14.92;63.24
40864;BME280;26582;47.524;19.012;2023-10-31T07:21:25;97781.44;;;14.91;61.93
40864;BME280;26582;47.524;19.012;2023-10-31T07:23:52;97779.41;;;14.99;62.47
40864;BME280;26582;47.524;19.012;2023-10-31T07:26:19;97788.44;;;14.92;62.13
40864;BME280;26582;47.524;19.012;2023-10-31T07:28:46;97791.34;;;14.97;62.76
40864;BME280;26582;47.524;19.012;2023-10-31T07:31:14;97775.06;;;15.05;62.96
40864;BME280;26582;47.524;19.012;2023-10-31T07:33:43;97769.94;;;15.10;62.57
40864;BME280;26582;47.524;19.012;2023-10-31T07:36:10;97771.19;;;15.14;62.38
40864;BME280;26582;47.524;19.012;2023-10-31T07:38:36;97766.84;;;15.20;62.85
40864;BME280;26582;47.524;19.012;2023-10-31T07:41:03;97772.03;;;15.41;62.12
40864;BME280;26582;47.524;19.012;2023-10-31T07:43:30;97778.44;;;15.40;61.15
40864;BME280;26582;47.524;19.012;2023-10-31T07:45:57;97770.38;;;15.40;62.12
40864;BME280;26582;47.524;19.012;2023-10-31T07:48:23;97776.75;;;15.32;62.79
40864;BME280;26582;47.524;19.012;2023-10-31T07:50:51;97779.22;;;15.14;63.05
40864;BME280;26582;47.524;19.012;2023-10-31T07:53:18;97758.59;;;15.21;62.03
40864;BME280;26582;47.524;19.012;2023-10-31T07:55:45;97756.34;;;15.31;61.27
40864;BME280;26582;47.524;19.012;2023-10-31T07:58:11;97760.69;;;15.46;60.79
40864;BME280;26582;47.524;19.012;2023-10-31T08:00:38;97753.50;;;15.66;59.86
40864;BME280;26582;47.524;19.012;2023-10-31T08:03:05;97757.34;;;15.97;59.05
40864;BME280;26582;47.524;19.012;2023-10-31T08:05:32;97750.50;;;16.07;57.51
40864;BME280;26582;47.524;19.012;2023-10-31T08:08:00;97755.44;;;16.17;58.27
40864;BME280;26582;47.524;19.012;2023-10-31T08:10:27;97761.22;;;16.27;56.92
40864;BME280;26582;47.524;19.012;2023-10-31T08:12:54;97761.44;;;16.12;56.68
40864;BME280;26582;47.524;19.012;2023-10-31T08:15:20;97762.91;;;16.02;57.64
40864;BME280;26582;47.524;19.012;2023-10-31T08:17:47;97757.16;;;15.98;57.92
40864;BME280;26582;47.524;19.012;2023-10-31T08:20:14;97762.91;;;16.02;58.01
40864;BME280;26582;47.524;19.012;2023-10-31T08:22:41;97770.78;;;15.90;58.38
40864;BME280;26582;47.524;19.012;2023-10-31T08:25:10;97767.09;;;15.71;58.92
40864;BME280;26582;47.524;19.012;2023-10-31T08:27:37;97771.41;;;15.92;59.12
40864;BME280;26582;47.524;19.012;2023-10-31T08:30:05;97766.00;;;16.12;58.89
40864;BME280;26582;47.524;19.012;2023-10-31T08:32:32;97765.41;;;15.97;59.16
40864;BME280;26582;47.524;19.012;2023-10-31T08:34:59;97770.81;;;15.83;59.35
40864;BME280;26582;47.524;19.012;2023-10-31T08:37:26;97744.38;;;15.87;58.98
40864;BME280;26582;47.524;19.012;2023-10-31T08:39:53;97758.00;;;15.99;59.21
40864;BME280;26582;47.524;19.012;2023-10-31T08:42:21;97752.56;;;16.12;57.77
40864;BME280;26582;47.524;19.012;2023-10-31T08:44:47;97751.91;;;16.30;58.52
40864;BME280;26582;47.524;19.012;2023-10-31T08:47:14;97752.97;;;16.29;58.02
40864;BME280;26582;47.524;19.012;2023-10-31T08:49:41;97737.00;;;16.40;59.34
40864;BME280;26582;47.524;19.012;2023-10-31T08:52:08;97750.44;;;16.40;57.92
40864;BME280;26582;47.524;19.012;2023-10-31T08:54:34;97738.91;;;16.27;57.27
40864;BME280;26582;47.524;19.012;2023-10-31T08:57:01;97749.59;;;16.33;57.51
40864;BME280;26582;47.524;19.012;2023-10-31T08:59:30;97745.47;;;16.37;57.88
40864;BME280;26582;47.524;19.012;2023-10-31T09:01:57;97730.50;;;16.61;56.86
40864;BME280;26582;47.524;19.012;2023-10-31T09:04:23;97728.41;;;16.63;56.47
40864;BME280;26582;47.524;19.012;2023-10-31T09:06:50;97716.19;;;16.67;56.98
40864;BME280;26582;47.524;19.012;2023-10-31T09:09:17;97718.81;;;16.81;55.73
40864;BME280;26582;47.524;19.012;2023-10-31T09:11:43;97718.59;;;16.89;55.45
40864;BME280;26582;47.524;19.012;2023-10-31T09:14:10;97721.22;;;16.95;54.94
40864;BME280;26582;47.524;19.012;2023-10-31T09:16:38;97722.63;;;17.05;55.15
40864;BME280;26582;47.524;19.012;2023-10-31T09:19:05;97718.88;;;17.06;55.29
40864;BME280;26582;47.524;19.012;2023-10-31T09:21:32;97702.41;;;16.95;54.41
40864;BME280;26582;47.524;19.012;2023-10-31T09:23:58;97709.66;;;16.95;54.55
40864;BME280;26582;47.524;19.012;2023-10-31T09:26:25;97708.47;;;16.84;55.33
40864;BME280;26582;47.524;19.012;2023-10-31T09:28:52;97695.84;;;17.16;54.86
40864;BME280;26582;47.524;19.012;2023-10-31T09:31:19;97692.34;;;16.84;54.11
40864;BME280;26582;47.524;19.012;2023-10-31T09:33:47;97688.53;;;16.99;54.14
40864;BME280;26582;47.524;19.012;2023-10-31T09:36:13;97685.63;;;17.25;54.15
40864;BME280;26582;47.524;19.012;2023-10-31T09:38:41;97679.00;;;17.03;55.71
40864;BME280;26582;47.524;19.012;2023-10-31T09:41:07;97675.47;;;17.27;54.32
40864;BME280;26582;47.524;19.012;2023-10-31T09:43:34;97683.00;;;17.18;54.63
40864;BME280;26582;47.524;19.012;2023-10-31T09:46:01;97690.91;;;17.38;54.35
40864;BME280;26582;47.524;19.012;2023-10-31T09:48:29;97683.13;;;17.48;53.71
40864;BME280;26582;47.524;19.012;2023-10-31T09:50:57;97678.63;;;17.24;54.89
40864;BME280;26582;47.524;19.012;2023-10-31T09:53:24;97667.22;;;17.22;53.96
40864;BME280;26582;47.524;19.012;2023-10-31T09:55:52;97657.44;;;17.28;54.81
40864;BME280;26582;47.524;19.012;2023-10-31T09:58:21;97656.78;;;17.32;55.02
40864;BME280;26582;47.524;19.012;2023-10-31T10:00:47;97651.25;;;17.27;54.28
40864;BME280;26582;47.524;19.012;2023-10-31T10:03:15;97646.91;;;17.26;54.70
40864;BME280;26582;47.524;19.012;2023-10-31T10:05:43;97636.94;;;17.33;55.37
40864;BME280;26582;47.524;19.012;2023-10-31T10:08:12;97616.41;;;17.14;55.15
40864;BME280;26582;47.524;19.012;2023-10-31T10:10:38;97606.88;;;17.36;54.78
40864;BME280;26582;47.524;19.012;2023-10-31T10:13:05;97608.66;;;17.42;54.66
40864;BME280;26582;47.524;19.012;2023-10-31T10:15:43;97596.84;;;17.43;53.77
40864;BME280;26582;47.524;19.012;2023-10-31T10:18:10;97603.91;;;17.63;53.62
40864;BME280;26582;47.524;19.012;2023-10-31T10:20:54;97601.06;;;17.58;52.93
40864;BME280;26582;47.524;19.012;2023-10-31T10:23:23;97587.31;;;17.66;52.30
40864;BME280;26582;47.524;19.012;2023-10-31T10:25:50;97578.47;;;17.59;52.68
40864;BME280;26582;47.524;19.012;2023-10-31T10:28:17;97576.88;;;17.76;52.03
40864;BME280;26582;47.524;19.012;2023-10-31T10:30:45;97570.44;;;17.77;53.92
40864;BME280;26582;47.524;19.012;2023-10-31T10:33:13;97551.16;;;17.80;52.99
40864;BME280;26582;47.524;19.012;2023-10-31T10:35:39;97552.41;;;17.78;52.68
40864;BME280;26582;47.524;19.012;2023-10-31T10:38:10;97552.03;;;17.92;54.03
40864;BME280;26582;47.524;19.012;2023-10-31T10:40:40;97546.03;;;17.90;50.38
40864;BME280;26582;47.524;19.012;2023-10-31T10:43:14;97545.28;;;17.83;51.06
40864;BME280;26582;47.524;19.012;2023-10-31T10:45:44;97547.50;;;18.05;50.81
40864;BME280;26582;47.524;19.012;2023-10-31T10:48:12;97549.38;;;18.04;50.38
40864;BME280;26582;47.524;19.012;2023-10-31T10:50:42;97548.84;;;17.95;50.95
40864;BME280;26582;47.524;19.012;2023-10-31T10:53:13;97539.09;;;18.13;50.56
40864;BME280;26582;47.524;19.012;2023-10-31T10:55:47;97529.47;;;18.05;51.49
40864;BME280;26582;47.524;19.012;2023-10-31T10:58:22;97522.03;;;18.19;50.04
40864;BME280;26582;47.524;19.012;2023-10-31T11:00:55;97516.91;;;18.41;50.98
40864;BME280;26582;47.524;19.012;2023-10-31T11:03:24;97515.91;;;18.54;49.80
40864;BME280;26582;47.524;19.012;2023-10-31T11:05:51;97516.38;;;18.62;48.38
40864;BME280;26582;47.524;19.012;2023-10-31T11:08:19;97511.41;;;18.36;50.83
40864;BME280;26582;47.524;19.012;2023-10-31T11:10:48;97491.00;;;18.28;49.95
40864;BME280;26582;47.524;19.012;2023-10-31T11:13:15;97481.72;;;18.24;49.18
40864;BME280;26582;47.524;19.012;2023-10-31T11:15:42;97482.13;;;18.39;48.79
40864;BME280;26582;47.524;19.012;2023-10-31T11:18:10;97483.75;;;18.52;47.85
40864;BME280;26582;47.524;19.012;2023-10-31T11:20:37;97503.06;;;18.37;49.11
40864;BME280;26582;47.524;19.012;2023-10-31T11:23:05;97509.66;;;18.41;49.62
40864;BME280;26582;47.524;19.012;2023-10-31T11:25:32;97523.47;;;18.33;50.42
40864;BME280;26582;47.524;19.012;2023-10-31T11:28:14;97517.53;;;18.55;51.45
40864;BME280;26582;47.524;19.012;2023-10-31T11:30:42;97500.13;;;18.69;51.13
40864;BME280;26582;47.524;19.012;2023-10-31T11:33:11;97484.25;;;18.61;50.95
40864;BME280;26582;47.524;19.012;2023-10-31T11:35:39;97479.41;;;18.39;50.05
40864;BME280;26582;47.524;19.012;2023-10-31T11:38:08;97462.44;;;17.97;49.35
40864;BME280;26582;47.524;19.012;2023-10-31T11:40:36;97428.06;;;18.22;49.36
40864;BME280;26582;47.524;19.012;2023-10-31T11:43:05;97419.50;;;18.37;50.28
40864;BME280;26582;47.524;19.012;2023-10-31T11:45:36;97427.38;;;18.27;52.14
40864;BME280;26582;47.524;19.012;2023-10-31T11:48:04;97429.50;;;18.48;51.87
40864;BME280;26582;47.524;19.012;2023-10-31T11:50:31;97422.69;;;18.58;51.93
40864;BME280;26582;47.524;19.012;2023-10-31T11:52:59;97424.00;;;18.67;51.51
40864;BME280;26582;47.524;19.012;2023-10-31T11:55:27;97429.63;;;18.65;53.79
40864;BME280;26582;47.524;19.012;2023-10-31T11:57:54;97424.50;;;18.75;53.30
40864;BME280;26582;47.524;19.012;2023-10-31T12:00:21;97412.41;;;18.78;51.44
40864;BME280;26582;47.524;19.012;2023-10-31T12:02:59;97417.56;;;18.91;51.53
40864;BME280;26582;47.524;19.012;2023-10-31T12:05:26;97406.31;;;18.83;54.15
40864;BME280;26582;47.524;19.012;2023-10-31T12:07:53;97404.09;;;18.80;55.95
40864;BME280;26582;47.524;19.012;2023-10-31T12:10:24;97380.03;;;18.78;54.52
40864;BME280;26582;47.524;19.012;2023-10-31T12:12:52;97365.38;;;18.74;54.18
40864;BME280;26582;47.524;19.012;2023-10-31T12:15:19;97384.19;;;18.69;54.44
40864;BME280;26582;47.524;19.012;2023-10-31T12:17:46;97415.31;;;18.53;55.81
40864;BME280;26582;47.524;19.012;2023-10-31T12:20:14;97434.03;;;18.13;58.61
40864;BME280;26582;47.524;19.012;2023-10-31T12:22:42;97467.53;;;17.75;73.49
40864;BME280;26582;47.524;19.012;2023-10-31T12:25:10;97584.56;;;16.54;84.09
40864;BME280;26582;47.524;19.012;2023-10-31T12:27:44;97651.06;;;15.82;87.41
40864;BME280;26582;47.524;19.012;2023-10-31T12:30:14;97689.88;;;15.73;90.81
40864;BME280;26582;47.524;19.012;2023-10-31T12:32:41;97712.59;;;15.37;93.30
40864;BME280;26582;47.524;19.012;2023-10-31T12:35:11;97694.44;;;15.26;94.99
40864;BME280;26582;47.524;19.012;2023-10-31T12:37:44;97710.72;;;15.45;94.12
40864;BME280;26582;47.524;19.012;2023-10-31T12:40:12;97676.03;;;15.50;94.38
40864;BME280;26582;47.524;19.012;2023-10-31T12:42:40;97638.69;;;15.68;94.59
40864;BME280;26582;47.524;19.012;2023-10-31T12:45:09;97606.41;;;15.88;94.66
40864;BME280;26582;47.524;19.012;2023-10-31T12:47:36;97620.63;;;15.95;93.02
40864;BME280;26582;47.524;19.012;2023-10-31T12:50:07;97635.81;;;15.56;90.28
40864;BME280;26582;47.524;19.012;2023-10-31T12:52:51;97643.66;;;15.51;91.24